sensor_id;sensor_type;location;lat;lon;timestamp;temperature;humidity
71184;DHT22;58887;51.980;4.464;2023-04-24T00:00:47;10.53;87.95
71184;DHT22;58887;51.980;4.464;2023-04-24T00:03:12;10.52;88.27
71184;DHT22;58887;51.980;4.464;2023-04-24T00:05:41;10.57;88.35
71184;DHT22;58887;51.980;4.464;2023-04-24T00:08:07;10.53;88.32
71184;DHT22;58887;51.980;4.464;2023-04-24T00:10:32;10.59;88.29
71184;DHT22;58887;51.980;4.464;2023-04-24T00:12:58;10.49;88.49
71184;DHT22;58887;51.980;4.464;2023-04-24T00:15:24;10.56;88.60
71184;DHT22;58887;51.980;4.464;2023-04-24T00:17:49;10.57;88.46
71184;DHT22;58887;51.980;4.464;2023-04-24T00:20:15;10.62;88.07
71184;DHT22;58887;51.980;4.464;2023-04-24T00:22:40;10.63;88.09
71184;DHT22;58887;51.980;4.464;2023-04-24T00:25:06;10.56;87.95
71184;DHT22;58887;51.980;4.464;2023-04-24T00:27:32;10.26;88.80
71184;DHT22;58887;51.980;4.464;2023-04-24T00:29:57;10.36;88.95
71184;DHT22;58887;51.980;4.464;2023-04-24T00:32:23;10.32;88.54
71184;DHT22;58887;51.980;4.464;2023-04-24T00:34:48;10.25;88.68
71184;DHT22;58887;51.980;4.464;2023-04-24T00:37:14;10.29;88.76
71184;DHT22;58887;51.980;4.464;2023-04-24T00:39:40;10.43;88.54
71184;DHT22;58887;51.980;4.464;2023-04-24T00:42:06;10.48;88.00
71184;DHT22;58887;51.980;4.464;2023-04-24T00:44:38;10.45;88.02
71184;DHT22;58887;51.980;4.464;2023-04-24T00:47:03;10.38;88.29
71184;DHT22;58887;51.980;4.464;2023-04-24T00:49:29;10.31;88.34
71184;DHT22;58887;51.980;4.464;2023-04-24T00:51:55;10.33;88.07
71184;DHT22;58887;51.980;4.464;2023-04-24T00:54:22;10.43;88.07
71184;DHT22;58887;51.980;4.464;2023-04-24T00:56:48;10.49;87.83
71184;DHT22;58887;51.980;4.464;2023-04-24T00:59:16;10.29;87.57
71184;DHT22;58887;51.980;4.464;2023-04-24T01:01:43;10.32;87.85
71184;DHT22;58887;51.980;4.464;2023-04-24T01:04:12;10.38;87.64
71184;DHT22;58887;51.980;4.464;2023-04-24T01:06:40;10.35;87.89
71184;DHT22;58887;51.980;4.464;2023-04-24T01:09:06;10.39;87.55
71184;DHT22;58887;51.980;4.464;2023-04-24T01:11:36;10.36;87.84
71184;DHT22;58887;51.980;4.464;2023-04-24T01:14:01;10.28;88.30
71184;DHT22;58887;51.980;4.464;2023-04-24T01:16:27;10.25;88.29
71184;DHT22;58887;51.980;4.464;2023-04-24T01:18:53;10.45;87.85
71184;DHT22;58887;51.980;4.464;2023-04-24T01:21:21;10.29;87.54
71184;DHT22;58887;51.980;4.464;2023-04-24T01:23:47;10.09;87.73
71184;DHT22;58887;51.980;4.464;2023-04-24T01:26:16;10.22;87.54
71184;DHT22;58887;51.980;4.464;2023-04-24T01:28:41;10.13;87.46
71184;DHT22;58887;51.980;4.464;2023-04-24T01:31:14;10.06;87.06
71184;DHT22;58887;51.980;4.464;2023-04-24T01:33:42;10.06;87.54
71184;DHT22;58887;51.980;4.464;2023-04-24T01:36:10;10.08;87.45
71184;DHT22;58887;51.980;4.464;2023-04-24T01:38:36;10.13;87.57
71184;DHT22;58887;51.980;4.464;2023-04-24T01:41:02;10.26;87.28
71184;DHT22;58887;51.980;4.464;2023-04-24T01:43:28;10.22;87.07
71184;DHT22;58887;51.980;4.464;2023-04-24T01:45:54;10.25;87.12
71184;DHT22;58887;51.980;4.464;2023-04-24T01:48:19;10.08;87.32
71184;DHT22;58887;51.980;4.464;2023-04-24T01:50:45;10.06;87.59
71184;DHT22;58887;51.980;4.464;2023-04-24T01:53:11;10.05;87.25
71184;DHT22;58887;51.980;4.464;2023-04-24T01:55:37;10.08;87.39
71184;DHT22;58887;51.980;4.464;2023-04-24T01:58:02;10.15;87.12
71184;DHT22;58887;51.980;4.464;2023-04-24T02:00:28;10.21;87.04
71184;DHT22;58887;51.980;4.464;2023-04-24T02:02:53;10.23;86.98
71184;DHT22;58887;51.980;4.464;2023-04-24T02:05:21;10.15;87.22
71184;DHT22;58887;51.980;4.464;2023-04-24T02:07:49;10.06;87.35
71184;DHT22;58887;51.980;4.464;2023-04-24T02:10:15;10.12;87.32
71184;DHT22;58887;51.980;4.464;2023-04-24T02:12:41;10.08;87.61
71184;DHT22;58887;51.980;4.464;2023-04-24T02:15:06;10.18;87.32
71184;DHT22;58887;51.980;4.464;2023-04-24T02:17:32;10.19;87.36
71184;DHT22;58887;51.980;4.464;2023-04-24T02:19:58;10.21;87.35
71184;DHT22;58887;51.980;4.464;2023-04-24T02:22:23;10.15;87.55
71184;DHT22;58887;51.980;4.464;2023-04-24T02:24:49;10.12;87.44
71184;DHT22;58887;51.980;4.464;2023-04-24T02:27:14;10.33;87.51
71184;DHT22;58887;51.980;4.464;2023-04-24T02:29:40;10.28;87.39
71184;DHT22;58887;51.980;4.464;2023-04-24T02:32:06;10.39;87.62
71184;DHT22;58887;51.980;4.464;2023-04-24T02:34:31;10.46;87.06
71184;DHT22;58887;51.980;4.464;2023-04-24T02:36:56;10.39;86.89
71184;DHT22;58887;51.980;4.464;2023-04-24T02:39:22;10.29;86.90
71184;DHT22;58887;51.980;4.464;2023-04-24T02:41:49;10.29;86.84
71184;DHT22;58887;51.980;4.464;2023-04-24T02:44:15;10.33;86.76
71184;DHT22;58887;51.980;4.464;2023-04-24T02:46:42;10.25;87.10
71184;DHT22;58887;51.980;4.464;2023-04-24T02:49:09;10.39;86.81
71184;DHT22;58887;51.980;4.464;2023-04-24T02:51:37;10.35;86.30
71184;DHT22;58887;51.980;4.464;2023-04-24T02:54:11;10.31;85.83
71184;DHT22;58887;51.980;4.464;2023-04-24T02:56:38;10.26;85.52
71184;DHT22;58887;51.980;4.464;2023-04-24T02:59:04;10.15;85.67
71184;DHT22;58887;51.980;4.464;2023-04-24T03:01:29;10.12;85.93
71184;DHT22;58887;51.980;4.464;2023-04-24T03:04:08;10.12;85.63
71184;DHT22;58887;51.980;4.464;2023-04-24T03:06:33;10.22;85.96
71184;DHT22;58887;51.980;4.464;2023-04-24T03:09:01;10.31;85.69
71184;DHT22;58887;51.980;4.464;2023-04-24T03:11:26;10.38;85.74
71184;DHT22;58887;51.980;4.464;2023-04-24T03:13:52;10.39;85.61
71184;DHT22;58887;51.980;4.464;2023-04-24T03:16:17;10.43;85.50
71184;DHT22;58887;51.980;4.464;2023-04-24T03:18:43;10.38;85.72
71184;DHT22;58887;51.980;4.464;2023-04-24T03:21:08;10.42;85.61
71184;DHT22;58887;51.980;4.464;2023-04-24T03:23:34;10.45;85.61
71184;DHT22;58887;51.980;4.464;2023-04-24T03:26:00;10.48;85.81
71184;DHT22;58887;51.980;4.464;2023-04-24T03:28:26;10.50;85.86
71184;DHT22;58887;51.980;4.464;2023-04-24T03:30:52;10.53;85.83
71184;DHT22;58887;51.980;4.464;2023-04-24T03:33:18;10.52;85.64
71184;DHT22;58887;51.980;4.464;2023-04-24T03:35:43;10.56;85.31
71184;DHT22;58887;51.980;4.464;2023-04-24T03:38:08;10.63;85.30
71184;DHT22;58887;51.980;4.464;2023-04-24T03:40:34;10.67;85.24
71184;DHT22;58887;51.980;4.464;2023-04-24T03:42:59;10.79;85.09
71184;DHT22;58887;51.980;4.464;2023-04-24T03:45:25;10.74;84.82
71184;DHT22;58887;51.980;4.464;2023-04-24T03:47:50;10.77;85.08
71184;DHT22;58887;51.980;4.464;2023-04-24T03:50:16;10.73;84.92
71184;DHT22;58887;51.980;4.464;2023-04-24T03:52:41;10.67;85.20
71184;DHT22;58887;51.980;4.464;2023-04-24T03:55:07;10.69;85.24
71184;DHT22;58887;51.980;4.464;2023-04-24T03:57:33;10.74;85.25
71184;DHT22;58887;51.980;4.464;2023-04-24T03:59:58;10.83;85.06
71184;DHT22;58887;51.980;4.464;2023-04-24T04:02:24;10.81;84.80
71184;DHT22;58887;51.980;4.464;2023-04-24T04:04:49;10.71;84.63
71184;DHT22;58887;51.980;4.464;2023-04-24T04:07:15;10.66;84.96
71184;DHT22;58887;51.980;4.464;2023-04-24T04:09:40;10.63;85.24
71184;DHT22;58887;51.980;4.464;2023-04-24T04:12:05;10.56;85.56
71184;DHT22;58887;51.980;4.464;2023-04-24T04:14:31;10.63;85.66
71184;DHT22;58887;51.980;4.464;2023-04-24T04:16:59;10.69;85.43
71184;DHT22;58887;51.980;4.464;2023-04-24T04:19:25;10.57;85.35
71184;DHT22;58887;51.980;4.464;2023-04-24T04:21:50;10.59;85.65
71184;DHT22;58887;51.980;4.464;2023-04-24T04:24:19;10.46;86.51
71184;DHT22;58887;51.980;4.464;2023-04-24T04:26:46;10.26;87.31
71184;DHT22;58887;51.980;4.464;2023-04-24T04:29:13;10.25;87.53
71184;DHT22;58887;51.980;4.464;2023-04-24T04:31:39;10.23;87.84
71184;DHT22;58887;51.980;4.464;2023-04-24T04:34:04;10.22;87.44
71184;DHT22;58887;51.980;4.464;2023-04-24T04:36:29;10.22;87.44
71184;DHT22;58887;51.980;4.464;2023-04-24T04:38:55;10.08;87.77
71184;DHT22;58887;51.980;4.464;2023-04-24T04:41:22;10.03;87.91
71184;DHT22;58887;51.980;4.464;2023-04-24T04:43:48;9.97;87.84
71184;DHT22;58887;51.980;4.464;2023-04-24T04:46:13;9.80;88.05
71184;DHT22;58887;51.980;4.464;2023-04-24T04:48:39;9.85;88.19
71184;DHT22;58887;51.980;4.464;2023-04-24T04:51:05;9.78;88.05
71184;DHT22;58887;51.980;4.464;2023-04-24T04:53:31;9.78;88.42
71184;DHT22;58887;51.980;4.464;2023-04-24T04:55:57;9.67;88.29
71184;DHT22;58887;51.980;4.464;2023-04-24T04:58:22;9.51;88.46
71184;DHT22;58887;51.980;4.464;2023-04-24T05:00:48;9.57;88.20
71184;DHT22;58887;51.980;4.464;2023-04-24T05:03:14;9.50;87.84
71184;DHT22;58887;51.980;4.464;2023-04-24T05:05:40;9.48;88.03
71184;DHT22;58887;51.980;4.464;2023-04-24T05:08:08;9.54;87.63
71184;DHT22;58887;51.980;4.464;2023-04-24T05:10:34;9.48;87.42
71184;DHT22;58887;51.980;4.464;2023-04-24T05:13:02;9.51;88.05
71184;DHT22;58887;51.980;4.464;2023-04-24T05:15:28;9.53;87.82
71184;DHT22;58887;51.980;4.464;2023-04-24T05:17:54;9.44;88.25
71184;DHT22;58887;51.980;4.464;2023-04-24T05:20:19;9.53;88.07
71184;DHT22;58887;51.980;4.464;2023-04-24T05:22:46;9.60;87.33
71184;DHT22;58887;51.980;4.464;2023-04-24T05:25:11;9.50;86.93
71184;DHT22;58887;51.980;4.464;2023-04-24T05:27:38;9.36;87.24
71184;DHT22;58887;51.980;4.464;2023-04-24T05:30:04;9.27;87.42
71184;DHT22;58887;51.980;4.464;2023-04-24T05:32:30;9.30;87.27
71184;DHT22;58887;51.980;4.464;2023-04-24T05:34:55;9.20;87.75
71184;DHT22;58887;51.980;4.464;2023-04-24T05:37:21;9.29;87.37
71184;DHT22;58887;51.980;4.464;2023-04-24T05:39:46;9.37;86.81
71184;DHT22;58887;51.980;4.464;2023-04-24T05:42:12;9.43;86.36
71184;DHT22;58887;51.980;4.464;2023-04-24T05:44:37;9.37;87.03
71184;DHT22;58887;51.980;4.464;2023-04-24T05:47:04;9.39;87.02
71184;DHT22;58887;51.980;4.464;2023-04-24T05:49:29;9.40;87.03
71184;DHT22;58887;51.980;4.464;2023-04-24T05:51:55;9.30;87.02
71184;DHT22;58887;51.980;4.464;2023-04-24T05:54:21;9.33;86.97
71184;DHT22;58887;51.980;4.464;2023-04-24T05:56:46;9.32;87.43
71184;DHT22;58887;51.980;4.464;2023-04-24T05:59:12;9.43;86.99
71184;DHT22;58887;51.980;4.464;2023-04-24T06:01:37;9.51;86.93
71184;DHT22;58887;51.980;4.464;2023-04-24T06:04:05;9.54;86.69
71184;DHT22;58887;51.980;4.464;2023-04-24T06:06:35;9.51;86.67
71184;DHT22;58887;51.980;4.464;2023-04-24T06:09:00;9.39;86.63
71184;DHT22;58887;51.980;4.464;2023-04-24T06:11:26;9.29;86.96
71184;DHT22;58887;51.980;4.464;2023-04-24T06:13:51;9.50;86.77
71184;DHT22;58887;51.980;4.464;2023-04-24T06:16:17;9.48;86.43
71184;DHT22;58887;51.980;4.464;2023-04-24T06:18:43;9.48;86.23
71184;DHT22;58887;51.980;4.464;2023-04-24T06:21:08;9.39;85.70
71184;DHT22;58887;51.980;4.464;2023-04-24T06:23:34;9.36;85.69
71184;DHT22;58887;51.980;4.464;2023-04-24T06:25:59;9.50;85.91
71184;DHT22;58887;51.980;4.464;2023-04-24T06:28:32;9.43;85.62
71184;DHT22;58887;51.980;4.464;2023-04-24T06:30:58;9.37;85.13
71184;DHT22;58887;51.980;4.464;2023-04-24T06:33:23;9.51;85.25
71184;DHT22;58887;51.980;4.464;2023-04-24T06:35:51;9.50;84.68
71184;DHT22;58887;51.980;4.464;2023-04-24T06:38:16;9.61;85.01
71184;DHT22;58887;51.980;4.464;2023-04-24T06:40:42;9.57;84.74
71184;DHT22;58887;51.980;4.464;2023-04-24T06:43:07;9.57;84.64
71184;DHT22;58887;51.980;4.464;2023-04-24T06:45:33;9.48;84.62
71184;DHT22;58887;51.980;4.464;2023-04-24T06:47:59;9.58;85.16
71184;DHT22;58887;51.980;4.464;2023-04-24T06:50:24;9.74;84.20
71184;DHT22;58887;51.980;4.464;2023-04-24T06:52:50;9.84;84.27
71184;DHT22;58887;51.980;4.464;2023-04-24T06:55:15;9.81;83.96
71184;DHT22;58887;51.980;4.464;2023-04-24T06:57:42;9.71;84.20
71184;DHT22;58887;51.980;4.464;2023-04-24T07:00:09;9.63;84.01
71184;DHT22;58887;51.980;4.464;2023-04-24T07:02:35;9.57;83.59
71184;DHT22;58887;51.980;4.464;2023-04-24T07:05:00;9.61;83.83
71184;DHT22;58887;51.980;4.464;2023-04-24T07:07:26;9.43;83.97
71184;DHT22;58887;51.980;4.464;2023-04-24T07:09:52;9.60;84.36
71184;DHT22;58887;51.980;4.464;2023-04-24T07:12:19;9.57;84.08
71184;DHT22;58887;51.980;4.464;2023-04-24T07:14:51;9.53;84.13
71184;DHT22;58887;51.980;4.464;2023-04-24T07:17:23;9.61;84.26
71184;DHT22;58887;51.980;4.464;2023-04-24T07:19:48;9.78;83.84
71184;DHT22;58887;51.980;4.464;2023-04-24T07:22:17;9.74;82.15
71184;DHT22;58887;51.980;4.464;2023-04-24T07:24:44;9.78;81.64
71184;DHT22;58887;51.980;4.464;2023-04-24T07:27:09;9.82;81.28
71184;DHT22;58887;51.980;4.464;2023-04-24T07:29:35;9.60;80.66
71184;DHT22;58887;51.980;4.464;2023-04-24T07:32:01;9.74;80.90
71184;DHT22;58887;51.980;4.464;2023-04-24T07:34:26;9.84;80.28
71184;DHT22;58887;51.980;4.464;2023-04-24T07:36:52;9.78;79.95
71184;DHT22;58887;51.980;4.464;2023-04-24T07:39:18;9.69;80.68
71184;DHT22;58887;51.980;4.464;2023-04-24T07:41:43;9.64;79.39
71184;DHT22;58887;51.980;4.464;2023-04-24T07:44:09;9.65;79.87
71184;DHT22;58887;51.980;4.464;2023-04-24T07:46:35;9.58;80.07
71184;DHT22;58887;51.980;4.464;2023-04-24T07:49:01;9.63;80.10
71184;DHT22;58887;51.980;4.464;2023-04-24T07:51:26;9.63;79.80
71184;DHT22;58887;51.980;4.464;2023-04-24T07:53:56;9.80;80.17
71184;DHT22;58887;51.980;4.464;2023-04-24T07:56:22;9.73;79.91
71184;DHT22;58887;51.980;4.464;2023-04-24T07:58:47;9.82;78.74
71184;DHT22;58887;51.980;4.464;2023-04-24T08:01:12;9.65;77.31
71184;DHT22;58887;51.980;4.464;2023-04-24T08:03:38;9.54;77.85
71184;DHT22;58887;51.980;4.464;2023-04-24T08:06:04;9.46;77.30
71184;DHT22;58887;51.980;4.464;2023-04-24T08:08:29;9.54;77.86
71184;DHT22;58887;51.980;4.464;2023-04-24T08:10:55;9.51;77.63
71184;DHT22;58887;51.980;4.464;2023-04-24T08:13:21;9.69;77.65
71184;DHT22;58887;51.980;4.464;2023-04-24T08:15:46;9.58;76.94
71184;DHT22;58887;51.980;4.464;2023-04-24T08:18:12;9.64;77.55
71184;DHT22;58887;51.980;4.464;2023-04-24T08:20:39;9.90;77.24
71184;DHT22;58887;51.980;4.464;2023-04-24T08:23:05;9.95;75.92
71184;DHT22;58887;51.980;4.464;2023-04-24T08:25:30;10.09;75.74
71184;DHT22;58887;51.980;4.464;2023-04-24T08:27:56;10.16;74.81
71184;DHT22;58887;51.980;4.464;2023-04-24T08:30:21;10.09;73.13
71184;DHT22;58887;51.980;4.464;2023-04-24T08:32:47;10.41;73.82
71184;DHT22;58887;51.980;4.464;2023-04-24T08:35:13;10.15;72.87
71184;DHT22;58887;51.980;4.464;2023-04-24T08:37:38;9.98;74.09
71184;DHT22;58887;51.980;4.464;2023-04-24T08:40:12;9.91;74.92
71184;DHT22;58887;51.980;4.464;2023-04-24T08:42:41;9.90;75.35
71184;DHT22;58887;51.980;4.464;2023-04-24T08:45:08;10.03;74.76
71184;DHT22;58887;51.980;4.464;2023-04-24T08:47:35;9.95;72.38
71184;DHT22;58887;51.980;4.464;2023-04-24T08:50:02;9.97;71.71
71184;DHT22;58887;51.980;4.464;2023-04-24T08:52:29;9.94;71.98
71184;DHT22;58887;51.980;4.464;2023-04-24T08:54:56;10.09;72.37
71184;DHT22;58887;51.980;4.464;2023-04-24T08:57:22;10.02;71.94
71184;DHT22;58887;51.980;4.464;2023-04-24T08:59:48;10.05;72.69
71184;DHT22;58887;51.980;4.464;2023-04-24T09:02:16;9.95;71.65
71184;DHT22;58887;51.980;4.464;2023-04-24T09:04:42;9.67;73.03
71184;DHT22;58887;51.980;4.464;2023-04-24T09:07:10;9.74;74.31
71184;DHT22;58887;51.980;4.464;2023-04-24T09:09:38;9.84;74.71
71184;DHT22;58887;51.980;4.464;2023-04-24T09:12:04;9.71;75.04
71184;DHT22;58887;51.980;4.464;2023-04-24T09:14:30;9.87;74.07
71184;DHT22;58887;51.980;4.464;2023-04-24T09:16:57;10.18;74.18
71184;DHT22;58887;51.980;4.464;2023-04-24T09:19:22;10.42;73.37
71184;DHT22;58887;51.980;4.464;2023-04-24T09:21:48;10.60;72.10
71184;DHT22;58887;51.980;4.464;2023-04-24T09:24:19;10.76;71.35
71184;DHT22;58887;51.980;4.464;2023-04-24T09:26:49;10.80;71.23
71184;DHT22;58887;51.980;4.464;2023-04-24T09:29:18;10.69;71.00
71184;DHT22;58887;51.980;4.464;2023-04-24T09:31:45;10.77;70.78
71184;DHT22;58887;51.980;4.464;2023-04-24T09:34:11;11.00;70.23
71184;DHT22;58887;51.980;4.464;2023-04-24T09:36:40;11.18;70.93
71184;DHT22;58887;51.980;4.464;2023-04-24T09:39:12;11.48;69.70
71184;DHT22;58887;51.980;4.464;2023-04-24T09:41:56;11.65;69.61
71184;DHT22;58887;51.980;4.464;2023-04-24T09:44:26;11.30;68.51
71184;DHT22;58887;51.980;4.464;2023-04-24T09:46:56;11.52;69.98
71184;DHT22;58887;51.980;4.464;2023-04-24T09:49:26;11.46;70.05
71184;DHT22;58887;51.980;4.464;2023-04-24T09:51:52;11.59;69.27
71184;DHT22;58887;51.980;4.464;2023-04-24T09:54:27;11.41;68.77
71184;DHT22;58887;51.980;4.464;2023-04-24T09:56:54;11.52;69.27
71184;DHT22;58887;51.980;4.464;2023-04-24T09:59:20;11.38;68.01
71184;DHT22;58887;51.980;4.464;2023-04-24T10:01:46;11.21;70.28
71184;DHT22;58887;51.980;4.464;2023-04-24T10:06:42;10.90;69.81
71184;DHT22;58887;51.980;4.464;2023-04-24T10:09:08;11.14;69.19
71184;DHT22;58887;51.980;4.464;2023-04-24T10:11:36;11.14;68.37
71184;DHT22;58887;51.980;4.464;2023-04-24T10:14:03;11.18;66.75
71184;DHT22;58887;51.980;4.464;2023-04-24T10:16:29;11.39;69.14
71184;DHT22;58887;51.980;4.464;2023-04-24T10:18:59;10.96;68.60
71184;DHT22;58887;51.980;4.464;2023-04-24T10:21:26;10.91;69.86
71184;DHT22;58887;51.980;4.464;2023-04-24T10:23:53;10.96;69.73
71184;DHT22;58887;51.980;4.464;2023-04-24T10:26:20;10.87;70.09
71184;DHT22;58887;51.980;4.464;2023-04-24T10:28:47;10.46;70.59
71184;DHT22;58887;51.980;4.464;2023-04-24T10:31:14;10.76;71.97
71184;DHT22;58887;51.980;4.464;2023-04-24T10:33:43;10.93;70.42
71184;DHT22;58887;51.980;4.464;2023-04-24T10:36:12;10.76;71.14
71184;DHT22;58887;51.980;4.464;2023-04-24T10:38:41;10.66;72.07
71184;DHT22;58887;51.980;4.464;2023-04-24T10:41:10;10.69;72.95
71184;DHT22;58887;51.980;4.464;2023-04-24T10:43:41;11.01;71.80
71184;DHT22;58887;51.980;4.464;2023-04-24T10:46:08;11.27;69.85
71184;DHT22;58887;51.980;4.464;2023-04-24T10:48:35;11.90;68.79
71184;DHT22;58887;51.980;4.464;2023-04-24T10:51:11;12.23;68.18
71184;DHT22;58887;51.980;4.464;2023-04-24T10:53:38;12.67;65.98
71184;DHT22;58887;51.980;4.464;2023-04-24T10:56:05;12.40;66.10
71184;DHT22;58887;51.980;4.464;2023-04-24T10:58:40;12.13;66.93
71184;DHT22;58887;51.980;4.464;2023-04-24T11:01:08;11.45;70.71
71184;DHT22;58887;51.980;4.464;2023-04-24T11:03:35;11.17;70.80
71184;DHT22;58887;51.980;4.464;2023-04-24T11:06:07;11.27;69.75
71184;DHT22;58887;51.980;4.464;2023-04-24T11:08:43;11.58;68.41
71184;DHT22;58887;51.980;4.464;2023-04-24T11:11:17;12.12;66.86
71184;DHT22;58887;51.980;4.464;2023-04-24T11:16:26;13.32;64.18
71184;DHT22;58887;51.980;4.464;2023-04-24T11:24:49;13.54;58.80
71184;DHT22;58887;51.980;4.464;2023-04-24T11:27:18;13.75;57.33
71184;DHT22;58887;51.980;4.464;2023-04-24T11:35:04;13.36;59.15
71184;DHT22;58887;51.980;4.464;2023-04-24T11:37:40;13.56;58.87
71184;DHT22;58887;51.980;4.464;2023-04-24T11:40:08;13.12;59.07
71184;DHT22;58887;51.980;4.464;2023-04-24T11:42:44;13.00;60.17
71184;DHT22;58887;51.980;4.464;2023-04-24T11:45:15;13.67;59.26
71184;DHT22;58887;51.980;4.464;2023-04-24T11:47:42;13.82;58.86
71184;DHT22;58887;51.980;4.464;2023-04-24T11:50:12;13.92;59.33
71184;DHT22;58887;51.980;4.464;2023-04-24T11:52:40;13.74;59.63
71184;DHT22;58887;51.980;4.464;2023-04-24T11:55:26;13.82;58.93
71184;DHT22;58887;51.980;4.464;2023-04-24T11:57:55;14.47;60.04
71184;DHT22;58887;51.980;4.464;2023-04-24T12:00:28;14.63;59.16
71184;DHT22;58887;51.980;4.464;2023-04-24T12:03:10;14.53;57.08
71184;DHT22;58887;51.980;4.464;2023-04-24T12:05:37;14.30;57.39
71184;DHT22;58887;51.980;4.464;2023-04-24T12:08:03;14.32;56.78
71184;DHT22;58887;51.980;4.464;2023-04-24T12:10:31;13.92;59.25
71184;DHT22;58887;51.980;4.464;2023-04-24T12:12:58;13.20;62.03
71184;DHT22;58887;51.980;4.464;2023-04-24T12:15:26;12.31;67.20
71184;DHT22;58887;51.980;4.464;2023-04-24T12:17:53;11.55;70.67
71184;DHT22;58887;51.980;4.464;2023-04-24T12:20:30;11.91;72.20
71184;DHT22;58887;51.980;4.464;2023-04-24T12:22:57;11.70;71.83
71184;DHT22;58887;51.980;4.464;2023-04-24T12:25:26;11.59;72.81
71184;DHT22;58887;51.980;4.464;2023-04-24T12:27:54;12.04;73.28
71184;DHT22;58887;51.980;4.464;2023-04-24T12:30:21;12.78;70.28
71184;DHT22;58887;51.980;4.464;2023-04-24T12:32:51;13.13;70.71
71184;DHT22;58887;51.980;4.464;2023-04-24T12:35:22;13.77;69.23
71184;DHT22;58887;51.980;4.464;2023-04-24T12:37:49;13.58;67.98
71184;DHT22;58887;51.980;4.464;2023-04-24T12:40:16;12.68;64.65
71184;DHT22;58887;51.980;4.464;2023-04-24T12:42:45;12.51;68.08
71184;DHT22;58887;51.980;4.464;2023-04-24T12:45:14;12.61;65.31
71184;DHT22;58887;51.980;4.464;2023-04-24T12:47:40;12.49;66.45
71184;DHT22;58887;51.980;4.464;2023-04-24T12:50:08;12.26;67.47
71184;DHT22;58887;51.980;4.464;2023-04-24T12:52:34;12.45;66.51
71184;DHT22;58887;51.980;4.464;2023-04-24T12:55:00;12.38;66.62
71184;DHT22;58887;51.980;4.464;2023-04-24T12:57:28;12.06;67.37
71184;DHT22;58887;51.980;4.464;2023-04-24T12:59:54;12.06;68.08
71184;DHT22;58887;51.980;4.464;2023-04-24T13:02:21;12.33;67.01
71184;DHT22;58887;51.980;4.464;2023-04-24T13:04:48;12.34;65.10
71184;DHT22;58887;51.980;4.464;2023-04-24T13:07:14;12.24;65.94
71184;DHT22;58887;51.980;4.464;2023-04-24T13:09:41;12.12;66.31
71184;DHT22;58887;51.980;4.464;2023-04-24T13:12:07;11.63;64.92
71184;DHT22;58887;51.980;4.464;2023-04-24T13:14:33;11.51;66.20
71184;DHT22;58887;51.980;4.464;2023-04-24T13:16:59;11.20;66.82
71184;DHT22;58887;51.980;4.464;2023-04-24T13:19:26;11.55;65.81
71184;DHT22;58887;51.980;4.464;2023-04-24T13:21:53;11.96;65.48
71184;DHT22;58887;51.980;4.464;2023-04-24T13:24:20;12.77;63.53
71184;DHT22;58887;51.980;4.464;2023-04-24T13:26:45;13.44;61.71
71184;DHT22;58887;51.980;4.464;2023-04-24T13:29:11;14.02;61.61
71184;DHT22;58887;51.980;4.464;2023-04-24T13:31:36;15.46;58.45
71184;DHT22;58887;51.980;4.464;2023-04-24T13:34:03;15.00;59.16
71184;DHT22;58887;51.980;4.464;2023-04-24T13:36:29;15.11;56.70
71184;DHT22;58887;51.980;4.464;2023-04-24T13:38:55;14.39;56.57
71184;DHT22;58887;51.980;4.464;2023-04-24T13:41:21;13.81;56.31
71184;DHT22;58887;51.980;4.464;2023-04-24T13:43:46;14.01;57.76
71184;DHT22;58887;51.980;4.464;2023-04-24T13:46:12;14.06;56.47
71184;DHT22;58887;51.980;4.464;2023-04-24T13:48:37;13.92;57.01
71184;DHT22;58887;51.980;4.464;2023-04-24T13:51:03;14.57;55.34
71184;DHT22;58887;51.980;4.464;2023-04-24T13:53:28;14.28;54.57
71184;DHT22;58887;51.980;4.464;2023-04-24T13:55:54;13.23;56.14
71184;DHT22;58887;51.980;4.464;2023-04-24T13:58:20;12.72;58.96
71184;DHT22;58887;51.980;4.464;2023-04-24T14:00:46;13.63;57.42
71184;DHT22;58887;51.980;4.464;2023-04-24T14:03:11;13.98;56.96
71184;DHT22;58887;51.980;4.464;2023-04-24T14:05:38;14.42;57.97
71184;DHT22;58887;51.980;4.464;2023-04-24T14:08:03;13.97;59.49
71184;DHT22;58887;51.980;4.464;2023-04-24T14:10:29;13.26;59.88
71184;DHT22;58887;51.980;4.464;2023-04-24T14:12:55;12.49;61.95
71184;DHT22;58887;51.980;4.464;2023-04-24T14:15:20;11.83;63.50
71184;DHT22;58887;51.980;4.464;2023-04-24T14:17:47;11.58;65.59
71184;DHT22;58887;51.980;4.464;2023-04-24T14:20:12;11.34;67.72
71184;DHT22;58887;51.980;4.464;2023-04-24T14:22:38;11.25;68.50
71184;DHT22;58887;51.980;4.464;2023-04-24T14:25:04;11.38;68.85
71184;DHT22;58887;51.980;4.464;2023-04-24T14:27:31;11.48;66.33
71184;DHT22;58887;51.980;4.464;2023-04-24T14:29:57;11.76;66.65
71184;DHT22;58887;51.980;4.464;2023-04-24T14:32:23;11.79;66.27
71184;DHT22;58887;51.980;4.464;2023-04-24T14:34:49;11.70;65.36
71184;DHT22;58887;51.980;4.464;2023-04-24T14:37:15;11.79;65.38
71184;DHT22;58887;51.980;4.464;2023-04-24T14:39:41;12.19;64.84
71184;DHT22;58887;51.980;4.464;2023-04-24T14:42:07;12.41;64.17
71184;DHT22;58887;51.980;4.464;2023-04-24T14:44:32;13.24;60.13
71184;DHT22;58887;51.980;4.464;2023-04-24T14:46:58;13.29;59.76
71184;DHT22;58887;51.980;4.464;2023-04-24T14:49:24;13.32;59.71
71184;DHT22;58887;51.980;4.464;2023-04-24T14:51:50;13.22;59.40
71184;DHT22;58887;51.980;4.464;2023-04-24T14:54:17;12.99;59.42
71184;DHT22;58887;51.980;4.464;2023-04-24T14:56:42;12.77;60.52
71184;DHT22;58887;51.980;4.464;2023-04-24T14:59:09;12.45;61.49
71184;DHT22;58887;51.980;4.464;2023-04-24T15:01:35;12.06;63.13
71184;DHT22;58887;51.980;4.464;2023-04-24T15:04:01;11.43;63.13
71184;DHT22;58887;51.980;4.464;2023-04-24T15:06:26;11.48;63.19
71184;DHT22;58887;51.980;4.464;2023-04-24T15:08:52;11.31;63.07
71184;DHT22;58887;51.980;4.464;2023-04-24T15:11:17;11.70;62.98
71184;DHT22;58887;51.980;4.464;2023-04-24T15:13:43;11.72;63.61
71184;DHT22;58887;51.980;4.464;2023-04-24T15:16:10;11.48;65.19
71184;DHT22;58887;51.980;4.464;2023-04-24T15:18:36;12.17;63.77
71184;DHT22;58887;51.980;4.464;2023-04-24T15:21:02;14.11;59.24
71184;DHT22;58887;51.980;4.464;2023-04-24T15:23:27;14.28;57.62
71184;DHT22;58887;51.980;4.464;2023-04-24T15:25:53;12.98;60.03
71184;DHT22;58887;51.980;4.464;2023-04-24T15:28:19;12.12;62.11
71184;DHT22;58887;51.980;4.464;2023-04-24T15:30:44;11.51;63.46
71184;DHT22;58887;51.980;4.464;2023-04-24T15:33:10;11.76;64.83
71184;DHT22;58887;51.980;4.464;2023-04-24T15:35:35;12.95;61.44
71184;DHT22;58887;51.980;4.464;2023-04-24T15:38:01;13.94;58.32
71184;DHT22;58887;51.980;4.464;2023-04-24T15:40:27;13.78;55.76
71184;DHT22;58887;51.980;4.464;2023-04-24T15:42:53;12.93;59.71
71184;DHT22;58887;51.980;4.464;2023-04-24T15:45:18;13.12;59.70
71184;DHT22;58887;51.980;4.464;2023-04-24T15:47:45;12.26;60.19